Impacts TAF Board INFO
FOR SITUATIONAL AWARENESS. NOT TO BE USED FOR FLIGHT PLANNING PURPOSES.
IDs:

KSEA - Seattle-Tacoma Intl, WA, US

Issued at 1120 UTC 26 Mar 2017
Updated at 1459 UTC 26 Mar 2017
Potential Impact None Slight Moderate High
Time1453Z 26/15Z 26/16Z 26/17Z 26/18Z 26/19Z 26/20Z 26/21Z 26/22Z 26/23Z 27/00Z 27/01Z 27/02Z 27/03Z
Type OBS PRVL PRVL PRVL PRVL PRVL PRVL PRVL PRVL PRVL PRVL PRVL PRVL PRVL
  [PRB30]  
VIS 10 >6 >6 >6 >6 >6 >6 6 6 6 6 6 6 >6
CIG 43 50 50 50 35 35 35 25 25 25 25 25 25 25
  [25]  
Cover OVC OVC OVC OVC OVC OVC OVC OVC OVC OVC OVC OVC OVC OVC
  [OVC]  
FltCat VFR VFR VFR VFR VFR VFR VFR MVFR MVFR MVFR MVFR MVFR MVFR MVFR
  [MVFR]  
WX -RA -RA -RA -RA -RA -RA -RA -RA BR -RA BR -RA BR -RA BR -RA BR -RA BR VCSH
  [-SHRA]  
WDir 140 90 90 90 110 110 110 150 150 150 150 150 150 190
[190]
WSpd 6 7 7 7 10 10 10 10 10 10 10 10 10 10
  [10]  
WGst -- -- -- -- -- -- -- -- -- -- -- -- -- --
  [--]  

Raw TAF
KSEA 261120Z 2612/2718 09005KT P6SM BKN050 OVC110
  FM261500 09007KT P6SM -RA SCT035 OVC050
  FM261800 11010KT P6SM -RA BKN035 OVC050
  FM262100 15010KT 6SM -RA BR OVC025
  FM270300 19010KT P6SM VCSH BKN025 OVC040
  PROB30 2703/2709 -SHRA
  FM271200 17007KT P6SM -SHRA BKN025 OVC040


Raw METAR
KSEA 261453Z 14006KT 10SM -RA BKN043 OVC050 07/03 A2985 RMK AO2 RAB34 SLP115 P0000 60000 T00720033 56014
KSEA 261353Z 12008KT 10SM FEW030 BKN055 OVC070 07/03 A2985 RMK AO2 SLP116 T00720033
KSEA 261253Z 15005KT 10SM BKN045 OVC055 07/03 A2987 RMK AO2 SLP121 T00670033
KSEA 261153Z 11008KT 10SM BKN049 BKN060 OVC120 07/03 A2989 RMK AO2 SLP128 T00670033 10078 20067 58031

METAR Board
Radar Display
Forecast Discussion

FOR SITUATIONAL AWARENESS. NOT TO BE USED FOR FLIGHT PLANNING PURPOSES.

Page loaded:  14:59 UTC  |   07:59 AM Pacific  |   08:59 AM Mountain  |   09:59 AM Central  |   10:59 AM Eastern

 

ADVISORIES

FORECASTS

FORECASTS

OBSERVATIONS

USER TOOLS

ABOUT US